ADDS METAR Data INFO
IDs: Format: Raw Decoded Include TAF

Data at: 2148 UTC 15 Dec 2017

KSEP 152135Z AUTO 33004KT 10SM CLR 13/M07 A3024 RMK AO2 T01261072
KSEP 152115Z AUTO 32005KT 10SM CLR 13/M07 A3024 RMK AO2 T01281071
KSEP 152055Z AUTO 36007KT 10SM CLR 13/M07 A3024 RMK AO2 T01281070
KSEP 152035Z AUTO 29008KT 10SM CLR 13/M07 A3025 RMK AO2 T01251068
KSEP 152015Z AUTO 31005KT 10SM CLR 13/M06 A3025 RMK AO2 T01281065
KSEP 151955Z AUTO 31004KT 10SM CLR 12/M06 A3026 RMK AO2 T01221064
KSEP 151935Z AUTO 29007KT 10SM CLR 12/M06 A3028 RMK AO2 T01241061
KSEP 151915Z AUTO 30010KT 10SM CLR 12/M06 A3030 RMK AO2 T01181057
KSEP 151855Z AUTO 33008G15KT 10SM CLR 12/M05 A3031 RMK AO2 T01171051
KSEP 151835Z AUTO 33008KT 10SM CLR 11/M05 A3032 RMK AO2 T01131053
KSEP 151815Z AUTO 32009G14KT 10SM CLR 12/M05 A3033 RMK AO2 T01161052
KSEP 151755Z AUTO 01009G14KT 10SM CLR 11/M05 A3034 RMK AO2 T01091052 10111 20008
KSEP 151735Z AUTO 01008G14KT 10SM CLR 10/M04 A3036 RMK AO2 T01041042
KSEP 151715Z AUTO 35007KT 10SM CLR 10/M03 A3036 RMK AO2 T00981028
KSEP 151655Z AUTO 36008KT 10SM CLR 09/M02 A3037 RMK AO2 T00901025
KSEP 151635Z AUTO 35008KT 10SM CLR 09/M02 A3036 RMK AO2 T00861023
KSEP 151615Z AUTO 36009KT 10SM CLR 08/M02 A3036 RMK AO2 T00781019
KSEP 151555Z AUTO 35007KT 10SM CLR 07/M02 A3037 RMK AO2 T00731016
KSEP 151535Z AUTO 01008G15KT 10SM CLR 07/M01 A3036 RMK AO2 T00661013
KSEP 151515Z AUTO 35010KT 10SM CLR 06/M01 A3036 RMK AO2 T00591012
KSEP 151455Z AUTO 35009KT 10SM CLR 04/M01 A3035 RMK AO2 T00421012
KSEP 151435Z AUTO 32005KT 10SM CLR 03/M02 A3035 RMK AO2 T00251020
KSEP 151415Z AUTO 32006KT 10SM CLR 02/M02 A3034 RMK AO2 T00181020
KSEP 151355Z AUTO 32006KT 10SM CLR 01/M02 A3035 RMK AO2 T00111025
KSEP 151335Z AUTO 32005KT 10SM CLR 01/M03 A3034 RMK AO2 T00101027
KSEP 151315Z AUTO 32005KT 10SM CLR 01/M03 A3033 RMK AO2 T00121028
KSEP 151255Z AUTO 32005KT 10SM CLR 02/M03 A3033 RMK AO2 T00151027
KSEP 151235Z AUTO 32005KT 10SM CLR 02/M03 A3032 RMK AO2 T00191026
KSEP 151215Z AUTO 33007KT 10SM CLR 02/M03 A3032 RMK AO2 T00171026
KSEP 151155Z AUTO 32006KT 10SM CLR 01/M03 A3030 RMK AO2 T00061033 10051 20004
KSEP 151135Z AUTO 00000KT 10SM CLR 01/M04 A3030 RMK AO2 T00121037
KSEP 151115Z AUTO 00000KT 10SM CLR 01/M03 A3029 RMK AO2 T00091035
KSEP 151055Z AUTO 00000KT 10SM CLR 01/M03 A3028 RMK AO2 T00071035
KSEP 151035Z AUTO 33003KT 10SM CLR 01/M04 A3028 RMK AO2 T00111036
KSEP 151015Z AUTO 00000KT 10SM CLR 02/M03 A3028 RMK AO2 T00161034
KSEP 150955Z AUTO 31003KT 10SM CLR 02/M03 A3028 RMK AO2 T00151035
KSEP 150935Z AUTO 31004KT 10SM CLR 02/M03 A3027 RMK AO2 T00171035
KSEP 150915Z AUTO 32004KT 10SM CLR 02/M03 A3027 RMK AO2 T00151035
KSEP 150855Z AUTO 32005KT 10SM CLR 02/M03 A3026 RMK AO2 T00221035
KSEP 150835Z AUTO 32006KT 10SM CLR 02/M03 A3026 RMK AO2 T00181034
KSEP 150815Z AUTO 31006KT 10SM CLR 02/M03 A3026 RMK AO2 T00221035
KSEP 150755Z AUTO 31006KT 10SM CLR 03/M03 A3025 RMK AO2 T00251033
KSEP 150735Z AUTO 32005KT 10SM CLR 03/M03 A3026 RMK AO2 T00291033
KSEP 150715Z AUTO 31005KT 10SM CLR 03/M03 A3025 RMK AO2 T00291034
KSEP 150655Z AUTO 33005KT 10SM CLR 04/M03 A3025 RMK AO2 T00391035
KSEP 150635Z AUTO 34006KT 10SM CLR 04/M03 A3026 RMK AO2 T00401035
KSEP 150615Z AUTO 35007KT 10SM CLR 05/M03 A3026 RMK AO2 T00491034
KSEP 150555Z AUTO 35007KT 10SM CLR 05/M03 A3027 RMK AO2 T00511035 10107 20050 401630050
KSEP 150535Z AUTO 35008KT 10SM CLR 06/M03 A3026 RMK AO2 T00571033
KSEP 150515Z AUTO 35008KT 10SM CLR 06/M03 A3026 RMK AO2 T00561033
KSEP 150455Z AUTO 35008KT 10SM CLR 05/M03 A3026 RMK AO2 T00531033
KSEP 150435Z AUTO 35006KT 10SM CLR 05/M03 A3026 RMK AO2 T00501032
KSEP 150415Z AUTO 35005KT 10SM CLR 06/M03 A3025 RMK AO2 T00551032
KSEP 150355Z AUTO 35006KT 10SM CLR 06/M03 A3024 RMK AO2 T00571032
KSEP 150335Z AUTO 35005KT 10SM CLR 06/M03 A3023 RMK AO2 T00621031
KSEP 150315Z AUTO 36005KT 10SM CLR 07/M03 A3024 RMK AO2 T00691030
KSEP 150255Z AUTO 36007KT 10SM CLR 07/M03 A3022 RMK AO2 T00721030
KSEP 150235Z AUTO 35007KT 10SM CLR 08/M03 A3020 RMK AO2 T00771030
KSEP 150215Z AUTO 36008KT 10SM CLR 08/M03 A3020 RMK AO2 T00801030
KSEP 150155Z AUTO 36008KT 10SM CLR 08/M03 A3019 RMK AO2 T00811031
KSEP 150135Z AUTO 36008KT 10SM CLR 08/M04 A3019 RMK AO2 T00831036
KSEP 150115Z AUTO 36009KT 10SM CLR 09/M04 A3017 RMK AO2 T00921036
KSEP 150055Z AUTO 36008KT 10SM CLR 09/M04 A3016 RMK AO2 T00941042
KSEP 150035Z AUTO 36007KT 10SM CLR 10/M05 A3015 RMK AO2 T00971047
KSEP 150015Z AUTO 36007KT 10SM CLR 10/M05 A3014 RMK AO2 T01021051
KSEP 142355Z AUTO 36007KT 10SM CLR 11/M05 A3012 RMK AO2 T01091053 10163 20109
KSEP 142335Z AUTO 36007KT 10SM CLR 12/M05 A3012 RMK AO2 T01201052
KSEP 142315Z AUTO 36009G15KT 10SM CLR 13/M05 A3011 RMK AO2 T01271054
KSEP 142255Z AUTO 36011G20KT 10SM CLR 14/M05 A3009 RMK AO2 T01361050
KSEP 142235Z AUTO 36010G17KT 10SM CLR 14/M05 A3009 RMK AO2 T01401050
KSEP 142215Z AUTO 01011G15KT 10SM CLR 14/M05 A3008 RMK AO2 T01381053
KSEP 142155Z AUTO 02011G15KT 10SM CLR 14/M04 A3008 RMK AO2 T01441045
KSEP 142135Z AUTO 01010G16KT 10SM CLR 15/M04 A3007 RMK AO2 T01531045
KSEP 142115Z AUTO 36014G20KT 10SM CLR 15/M04 A3007 RMK AO2 T01531044
KSEP 142055Z AUTO 01014G17KT 10SM CLR 16/M04 A3006 RMK AO2 T01581042
KSEP 142035Z AUTO 01013G17KT 10SM CLR 16/M04 A3006 RMK AO2 T01611042
KSEP 142015Z AUTO 35017G20KT 10SM CLR 16/M04 A3006 RMK AO2 T01571040
KSEP 141955Z AUTO 01011G16KT 10SM CLR 16/M04 A3005 RMK AO2 T01601038
KSEP 141935Z AUTO 36014G17KT 10SM CLR 16/M04 A3006 RMK AO2 T01611037
KSEP 141915Z AUTO 01014G17KT 10SM CLR 16/M04 A3006 RMK AO2 T01571037
KSEP 141855Z AUTO 02013G17KT 10SM CLR 16/M04 A3007 RMK AO2 T01581037
KSEP 141835Z AUTO 36013G17KT 10SM CLR 16/M03 A3008 RMK AO2 T01561035
KSEP 141815Z AUTO 02011G15KT 10SM CLR 16/M04 A3009 RMK AO2 T01561036
KSEP 141755Z AUTO 01009KT 10SM CLR 15/M04 A3010 RMK AO2 T01531036 10153 20058
KSEP 141735Z AUTO 03010KT 10SM CLR 15/M03 A3010 RMK AO2 T01501035
KSEP 141715Z AUTO 03012KT 10SM CLR 15/M03 A3010 RMK AO2 T01451035
KSEP 141655Z AUTO 03011G17KT 10SM CLR 13/M04 A3010 RMK AO2 T01301037
KSEP 141635Z AUTO 02013G19KT 10SM CLR 12/M04 A3010 RMK AO2 T01241040
KSEP 141615Z AUTO 02012G17KT 10SM CLR 11/M04 A3010 RMK AO2 T01131042
KSEP 141555Z AUTO 01013G18KT 10SM CLR 11/M04 A3009 RMK AO2 T01091043
KSEP 141535Z AUTO 01011KT 10SM CLR 10/M04 A3008 RMK AO2 T01011044
KSEP 141515Z AUTO 01008G15KT 10SM CLR 09/M04 A3007 RMK AO2 T00941045
KSEP 141455Z AUTO 36010G16KT 10SM CLR 09/M05 A3006 RMK AO2 T00871048
KSEP 141435Z AUTO 36010KT 10SM CLR 08/M05 A3005 RMK AO2 T00821050
KSEP 141415Z AUTO 36008KT 10SM CLR 07/M05 A3003 RMK AO2 T00681048
KSEP 141355Z AUTO 35007KT 10SM CLR 06/M05 A3002 RMK AO2 T00601048
KSEP 141335Z AUTO 35007KT 10SM CLR 07/M05 A3001 RMK AO2 T00661050
KSEP 141315Z AUTO 36005KT 10SM CLR 07/M05 A3000 RMK AO2 T00711051
KSEP 141255Z AUTO 36004KT 10SM CLR 07/M05 A2999 RMK AO2 T00731052
KSEP 141235Z AUTO 36007KT 10SM CLR 08/M05 A2998 RMK AO2 T00791052
KSEP 141215Z AUTO 01008KT 10SM CLR 08/M05 A2997 RMK AO2 T00811054
KSEP 141155Z AUTO 01008KT 10SM CLR 09/M05 A2997 RMK AO2 T00861055 10111 20062
KSEP 141135Z AUTO 36008KT 10SM CLR 09/M05 A2996 RMK AO2 T00851055
KSEP 141115Z AUTO 36005KT 10SM CLR 09/M06 A2995 RMK AO2 T00851057
KSEP 141055Z AUTO 36006KT 10SM CLR 09/M06 A2994 RMK AO2 T00921060
KSEP 141035Z AUTO 36006KT 10SM CLR 10/M06 A2993 RMK AO2 T00951060
KSEP 141015Z AUTO 36006KT 10SM SCT120 10/M06 A2993 RMK AO2 T01041057
KSEP 140955Z AUTO 36008KT 10SM SCT120 10/M05 A2993 RMK AO2 T00991050